createdAt,value
2022-09-25T00:00:50.221Z,7.43
2022-09-25T00:03:18.099Z,7.40
2022-09-25T00:05:45.954Z,7.35
2022-09-25T00:08:13.151Z,7.37
2022-09-25T00:10:48.579Z,7.35
2022-09-25T00:13:16.562Z,7.30
2022-09-25T00:15:51.138Z,7.25
2022-09-25T00:18:37.605Z,7.20
2022-09-25T00:21:05.482Z,7.22
2022-09-25T00:23:32.298Z,7.21
2022-09-25T00:25:59.808Z,7.16
2022-09-25T00:28:29.053Z,7.19
2022-09-25T00:30:56.486Z,7.14
2022-09-25T00:33:23.631Z,7.11
2022-09-25T00:35:50.324Z,7.06
2022-09-25T00:38:16.753Z,7.03
2022-09-25T00:40:43.362Z,7.02
2022-09-25T00:43:14.674Z,7.03
2022-09-25T00:45:42.418Z,6.98
2022-09-25T00:48:14.065Z,6.96
2022-09-25T00:50:48.768Z,6.91
2022-09-25T00:53:21.265Z,6.84
2022-09-25T00:55:47.773Z,6.84
2022-09-25T00:58:17.630Z,6.87
2022-09-25T01:00:44.514Z,6.82
2022-09-25T01:03:11.424Z,6.86
2022-09-25T01:05:41.859Z,6.89
2022-09-25T01:08:11.120Z,6.86
2022-09-25T01:10:37.619Z,6.83
2022-09-25T01:13:04.662Z,6.85
2022-09-25T01:15:37.108Z,6.69
2022-09-25T01:18:25.347Z,6.65
2022-09-25T01:21:28.103Z,6.58
2022-09-25T01:24:11.641Z,6.56
2022-09-25T01:27:13.380Z,6.57
2022-09-25T01:29:53.994Z,6.55
2022-09-25T01:32:25.846Z,6.50
2022-09-25T01:35:18.574Z,6.44
2022-09-25T01:37:49.637Z,6.46
2022-09-25T01:40:16.193Z,6.46
2022-09-25T01:42:55.625Z,6.42
2022-09-25T01:45:28.144Z,6.41
2022-09-25T01:47:57.192Z,6.34
2022-09-25T01:50:48.003Z,6.31
2022-09-25T01:53:18.756Z,6.23
2022-09-25T01:55:49.185Z,6.26
2022-09-25T01:58:39.072Z,6.27
2022-09-25T02:01:14.966Z,6.24
2022-09-25T02:03:46.654Z,6.23
2022-09-25T02:06:16.957Z,6.22
2022-09-25T02:09:04.304Z,6.17
2022-09-25T02:11:36.317Z,6.13
2022-09-25T02:14:06.891Z,6.04
2022-09-25T02:16:38.524Z,6.02
2022-09-25T02:19:24.164Z,6.00
2022-09-25T02:22:04.542Z,6.03
2022-09-25T02:24:39.487Z,5.98
2022-09-25T02:27:06.154Z,5.93
2022-09-25T02:29:32.705Z,5.94
2022-09-25T02:32:09.021Z,5.86
2022-09-25T02:34:36.249Z,5.78
2022-09-25T02:37:03.281Z,5.79
2022-09-25T02:39:30.731Z,5.76
2022-09-25T02:42:14.682Z,5.80
2022-09-25T02:45:18.192Z,5.76
2022-09-25T02:47:56.552Z,5.83
2022-09-25T02:50:41.219Z,5.81
2022-09-25T02:53:18.532Z,5.82
2022-09-25T02:55:51.963Z,5.83
2022-09-25T02:58:24.676Z,5.81
2022-09-25T03:00:52.925Z,5.88
2022-09-25T03:03:20.158Z,5.92
2022-09-25T03:05:48.635Z,5.84
2022-09-25T03:08:33.971Z,5.88
2022-09-25T03:11:00.689Z,5.93
2022-09-25T03:13:32.023Z,5.91
2022-09-25T03:16:04.381Z,5.92
2022-09-25T03:18:31.527Z,5.92
2022-09-25T03:20:58.617Z,5.93
2022-09-25T03:23:25.270Z,5.97
2022-09-25T03:25:55.273Z,5.96
2022-09-25T03:28:22.689Z,5.95
2022-09-25T03:31:02.043Z,5.94
2022-09-25T03:33:30.823Z,5.97
2022-09-25T03:36:03.163Z,5.92
2022-09-25T03:38:29.580Z,6.00
2022-09-25T03:40:56.077Z,6.00
2022-09-25T03:43:22.630Z,6.02
2022-09-25T03:45:49.113Z,6.03
2022-09-25T03:48:15.644Z,6.10
2022-09-25T03:50:42.114Z,6.08
2022-09-25T03:53:08.595Z,6.06
2022-09-25T03:55:35.032Z,6.04
2022-09-25T03:58:01.436Z,6.14
2022-09-25T04:00:27.884Z,6.17
2022-09-25T04:02:54.355Z,6.30
2022-09-25T04:05:21.097Z,6.23
2022-09-25T04:07:48.208Z,6.29
2022-09-25T04:10:14.726Z,6.24
2022-09-25T04:12:43.524Z,6.25
2022-09-25T04:15:10.220Z,6.29
2022-09-25T04:17:36.636Z,6.34
2022-09-25T04:20:04.611Z,6.37
2022-09-25T04:22:31.101Z,6.36
2022-09-25T04:24:58.349Z,6.40
2022-09-25T04:27:24.788Z,6.38
2022-09-25T04:29:51.177Z,6.38
2022-09-25T04:32:36.192Z,6.42
2022-09-25T04:35:04.079Z,6.49
2022-09-25T04:37:30.761Z,6.51
2022-09-25T04:39:58.264Z,6.53
2022-09-25T04:42:25.454Z,6.59
2022-09-25T04:44:53.611Z,6.64
2022-09-25T04:47:21.253Z,6.68
2022-09-25T04:49:48.144Z,6.69
2022-09-25T04:52:15.847Z,6.72
2022-09-25T04:54:42.802Z,6.71
2022-09-25T04:57:11.026Z,6.83
2022-09-25T04:59:37.934Z,6.89
2022-09-25T05:02:04.714Z,6.91
2022-09-25T05:04:31.396Z,7.00
2022-09-25T05:06:57.998Z,7.05
2022-09-25T05:09:24.451Z,7.14
2022-09-25T05:11:51.006Z,7.23
2022-09-25T05:14:17.441Z,7.31
2022-09-25T05:16:46.292Z,7.34
2022-09-25T05:19:13.092Z,7.43
2022-09-25T05:21:39.907Z,7.47
2022-09-25T05:24:08.448Z,7.47
2022-09-25T05:26:36.213Z,7.58
2022-09-25T05:29:04.349Z,7.70
2022-09-25T05:31:33.715Z,7.81
2022-09-25T05:34:00.276Z,7.90
2022-09-25T05:36:26.888Z,7.89
2022-09-25T05:38:54.498Z,7.95
2022-09-25T05:41:21.660Z,8.08
2022-09-25T05:43:48.106Z,8.15
2022-09-25T05:46:15.415Z,8.14
2022-09-25T05:48:42.072Z,8.28
2022-09-25T05:51:08.677Z,8.37
2022-09-25T05:53:35.180Z,8.44
2022-09-25T05:56:04.461Z,8.51
2022-09-25T05:58:33.419Z,8.62
2022-09-25T06:01:01.594Z,8.77
2022-09-25T06:03:30.885Z,8.87
2022-09-25T06:05:58.223Z,8.99
2022-09-25T06:08:25.798Z,9.04
2022-09-25T06:10:54.194Z,9.24
2022-09-25T06:13:22.081Z,9.41
2022-09-25T06:15:50.817Z,9.57
2022-09-25T06:18:17.397Z,9.67
2022-09-25T06:20:44.094Z,9.73
2022-09-25T06:23:10.697Z,9.79
2022-09-25T06:25:37.222Z,9.86
2022-09-25T06:28:04.891Z,9.90
2022-09-25T06:30:36.275Z,9.89
2022-09-25T06:33:13.504Z,9.99
2022-09-25T06:35:44.199Z,10.12
2022-09-25T06:38:11.211Z,10.09
2022-09-25T06:40:40.958Z,10.25
2022-09-25T06:43:10.646Z,10.45
2022-09-25T06:45:39.133Z,10.62
2022-09-25T06:48:10.179Z,10.78
2022-09-25T06:50:41.496Z,10.98
2022-09-25T06:53:08.851Z,11.03
2022-09-25T06:55:35.613Z,11.21
2022-09-25T06:58:03.090Z,11.09
2022-09-25T07:00:29.729Z,11.19
2022-09-25T07:03:17.122Z,11.35
2022-09-25T07:05:44.532Z,11.41
2022-09-25T07:08:13.987Z,11.37
2022-09-25T07:10:45.102Z,11.61
2022-09-25T07:13:12.230Z,11.87
2022-09-25T07:15:39.289Z,12.38
2022-09-25T07:18:05.870Z,13.43
2022-09-25T07:20:32.606Z,14.52
2022-09-25T07:23:04.347Z,16.98
2022-09-25T07:25:33.961Z,20.12
2022-09-25T07:28:00.451Z,22.61
2022-09-25T07:30:32.344Z,24.08
2022-09-25T07:33:00.267Z,25.14
2022-09-25T07:35:27.301Z,25.63
2022-09-25T07:37:59.518Z,27.53
2022-09-25T07:40:28.924Z,28.84
2022-09-25T07:43:03.895Z,29.38
2022-09-25T07:45:31.313Z,30.08
2022-09-25T07:48:00.790Z,30.78
2022-09-25T07:50:28.714Z,30.34
2022-09-25T07:52:55.674Z,30.61
2022-09-25T07:55:22.727Z,30.94
2022-09-25T07:57:52.174Z,31.15
2022-09-25T08:00:18.835Z,31.79
2022-09-25T08:02:45.443Z,32.37
2022-09-25T08:05:12.407Z,32.25
2022-09-25T08:07:40.089Z,31.64
2022-09-25T08:10:07.420Z,32.21
2022-09-25T08:12:34.224Z,33.01
2022-09-25T08:15:00.718Z,32.12
2022-09-25T08:17:31.224Z,31.72
2022-09-25T08:19:58.471Z,31.49
2022-09-25T08:22:25.126Z,28.50
2022-09-25T08:24:51.867Z,27.50
2022-09-25T08:27:18.512Z,26.46
2022-09-25T08:29:45.437Z,24.70
2022-09-25T08:32:12.161Z,22.96
2022-09-25T08:34:41.464Z,21.68
2022-09-25T08:37:09.672Z,20.07
2022-09-25T08:39:36.340Z,19.70
2022-09-25T08:42:06.560Z,19.63
2022-09-25T08:44:56.950Z,19.04
2022-09-25T08:47:48.148Z,18.25
2022-09-25T08:50:22.785Z,17.85
2022-09-25T08:52:53.540Z,17.98
2022-09-25T08:55:46.123Z,17.42
2022-09-25T08:58:21.029Z,17.39
2022-09-25T09:00:48.006Z,17.86
2022-09-25T09:03:15.329Z,18.33
2022-09-25T09:05:51.717Z,18.53
2022-09-25T09:08:20.677Z,18.31
2022-09-25T09:10:53.248Z,18.23
2022-09-25T09:13:30.729Z,18.26
2022-09-25T09:16:02.089Z,18.27
2022-09-25T09:18:36.519Z,18.26
2022-09-25T09:21:28.706Z,18.58
2022-09-25T09:24:26.360Z,18.93
2022-09-25T09:27:16.359Z,19.25
2022-09-25T09:30:15.892Z,18.95
2022-09-25T09:33:01.753Z,18.77
2022-09-25T09:35:49.186Z,18.94
2022-09-25T09:38:21.678Z,18.81
2022-09-25T09:41:26.970Z,18.44
2022-09-25T09:44:19.258Z,18.43
2022-09-25T09:47:17.514Z,18.16
2022-09-25T09:49:51.114Z,18.05
2022-09-25T09:52:21.321Z,17.71
2022-09-25T09:54:58.096Z,17.35
2022-09-25T09:57:27.417Z,17.30
2022-09-25T10:00:03.653Z,17.44
2022-09-25T10:02:40.805Z,17.42
2022-09-25T10:05:32.079Z,17.36
2022-09-25T10:07:58.673Z,17.38
2022-09-25T10:10:37.349Z,17.48
2022-09-25T10:13:07.372Z,17.47
2022-09-25T10:15:39.114Z,17.52
2022-09-25T10:18:06.939Z,17.60
2022-09-25T10:20:42.359Z,17.56
2022-09-25T10:23:32.428Z,17.72
2022-09-25T10:25:59.182Z,17.54
2022-09-25T10:28:32.426Z,17.22
2022-09-25T10:31:00.134Z,17.41
2022-09-25T10:33:29.324Z,17.43
2022-09-25T10:35:56.435Z,17.39
2022-09-25T10:38:44.320Z,17.23
2022-09-25T10:41:13.279Z,17.19
2022-09-25T10:44:03.013Z,17.39
2022-09-25T10:46:52.723Z,17.38
2022-09-25T10:49:43.479Z,17.48
2022-09-25T10:52:15.374Z,17.42
2022-09-25T10:54:45.447Z,17.47
2022-09-25T10:57:25.509Z,17.29
2022-09-25T10:59:52.483Z,17.56
2022-09-25T11:02:43.071Z,17.52
2022-09-25T11:05:18.372Z,17.54
2022-09-25T11:07:55.324Z,17.54
2022-09-25T11:10:24.260Z,17.81
2022-09-25T11:12:51.476Z,18.02
2022-09-25T11:15:20.584Z,18.20
2022-09-25T11:17:52.287Z,18.18
2022-09-25T11:20:31.806Z,18.04
2022-09-25T11:23:17.440Z,17.84
2022-09-25T11:26:05.995Z,17.80
2022-09-25T11:28:49.214Z,17.77
2022-09-25T11:31:41.280Z,17.85
2022-09-25T11:34:21.235Z,17.88
2022-09-25T11:37:04.389Z,18.03
2022-09-25T11:40:16.278Z,18.20
2022-09-25T11:42:42.755Z,18.09
2022-09-25T11:45:30.461Z,17.97
2022-09-25T11:48:05.371Z,17.87
2022-09-25T11:51:10.103Z,17.87
2022-09-25T11:54:25.221Z,17.68
2022-09-25T11:57:34.571Z,17.48
2022-09-25T12:00:14.420Z,17.24
2022-09-25T12:02:52.831Z,17.51
2022-09-25T12:05:29.578Z,17.67
2022-09-25T12:08:04.967Z,17.92
2022-09-25T12:10:44.047Z,17.68
2022-09-25T12:13:23.856Z,17.46
2022-09-25T12:16:04.372Z,17.38
2022-09-25T12:19:03.369Z,17.41
2022-09-25T12:21:34.592Z,17.55
2022-09-25T12:24:06.235Z,17.80
2022-09-25T12:26:55.352Z,18.28
2022-09-25T12:29:35.676Z,18.67
2022-09-25T12:32:25.496Z,18.62
2022-09-25T12:35:29.567Z,18.26
2022-09-25T12:38:05.649Z,18.01
2022-09-25T12:40:40.366Z,17.70
2022-09-25T12:43:28.938Z,17.57
2022-09-25T12:46:31.804Z,17.84
2022-09-25T12:49:05.986Z,18.38
2022-09-25T12:51:51.435Z,18.22
2022-09-25T12:54:25.797Z,18.13
2022-09-25T12:56:56.788Z,18.22
2022-09-25T12:59:34.042Z,18.48
2022-09-25T13:02:04.439Z,18.49
2022-09-25T13:04:53.251Z,18.87
2022-09-25T13:07:25.128Z,18.84
2022-09-25T13:09:52.211Z,18.40
2022-09-25T13:12:33.283Z,18.48
2022-09-25T13:15:18.803Z,18.25
2022-09-25T13:17:45.345Z,17.97
2022-09-25T13:20:27.052Z,17.84
2022-09-25T13:23:05.751Z,17.88
2022-09-25T13:25:42.155Z,17.80
2022-09-25T13:28:17.030Z,17.93
2022-09-25T13:30:58.135Z,17.92
2022-09-25T13:33:24.948Z,17.93
2022-09-25T13:36:07.111Z,17.96
2022-09-25T13:38:58.480Z,18.06
2022-09-25T13:41:25.629Z,18.35
2022-09-25T13:44:31.359Z,18.25
2022-09-25T13:47:25.924Z,18.35
2022-09-25T13:50:19.013Z,17.81
2022-09-25T13:52:45.506Z,17.84
2022-09-25T13:55:17.152Z,17.82
2022-09-25T13:57:58.984Z,17.77
2022-09-25T14:00:55.762Z,17.61
2022-09-25T14:03:30.333Z,17.42
2022-09-25T14:05:57.439Z,17.36
2022-09-25T14:08:24.224Z,17.46
2022-09-25T14:10:52.037Z,17.38
2022-09-25T14:13:22.248Z,17.38
2022-09-25T14:15:48.694Z,17.39
2022-09-25T14:18:36.327Z,17.34
2022-09-25T14:21:06.337Z,17.33
2022-09-25T14:23:33.408Z,17.41
2022-09-25T14:26:01.982Z,17.38
2022-09-25T14:28:30.902Z,17.25
2022-09-25T14:31:26.267Z,17.05
2022-09-25T14:34:20.511Z,17.04
2022-09-25T14:37:18.754Z,17.09
2022-09-25T14:40:06.039Z,17.12
2022-09-25T14:42:43.907Z,17.07
2022-09-25T14:45:34.299Z,16.91
2022-09-25T14:48:04.458Z,16.99
2022-09-25T14:50:34.624Z,16.91
2022-09-25T14:53:08.158Z,16.82
2022-09-25T14:55:37.867Z,16.82
2022-09-25T14:58:09.463Z,16.77
2022-09-25T15:00:44.705Z,16.80
2022-09-25T15:03:13.965Z,16.86
2022-09-25T15:05:46.507Z,16.73
2022-09-25T15:08:23.069Z,16.68
2022-09-25T15:11:01.132Z,16.68
2022-09-25T15:13:33.512Z,16.67
2022-09-25T15:16:19.194Z,16.61
2022-09-25T15:18:50.007Z,16.54
2022-09-25T15:21:32.184Z,16.45
2022-09-25T15:24:02.379Z,16.33
2022-09-25T15:26:30.968Z,16.29
2022-09-25T15:28:57.579Z,16.18
2022-09-25T15:31:25.260Z,16.09
2022-09-25T15:34:04.493Z,16.09
2022-09-25T15:36:31.095Z,16.09
2022-09-25T15:39:03.262Z,16.08
2022-09-25T15:41:30.005Z,16.07
2022-09-25T15:44:13.106Z,15.98
2022-09-25T15:46:42.871Z,15.94
2022-09-25T15:49:14.620Z,15.91
2022-09-25T15:51:52.759Z,15.93
2022-09-25T15:54:42.751Z,15.82
2022-09-25T15:57:13.259Z,15.83
2022-09-25T16:00:05.961Z,15.77
2022-09-25T16:02:57.165Z,15.70
2022-09-25T16:05:35.434Z,15.68
2022-09-25T16:08:23.899Z,15.56
2022-09-25T16:11:04.462Z,15.54
2022-09-25T16:13:30.988Z,15.51
2022-09-25T16:15:57.754Z,15.45
2022-09-25T16:18:32.141Z,15.39
2022-09-25T16:21:29.807Z,15.28
2022-09-25T16:24:07.442Z,15.23
2022-09-25T16:26:40.769Z,15.14
2022-09-25T16:29:17.606Z,15.10
2022-09-25T16:31:44.983Z,15.08
2022-09-25T16:34:25.952Z,15.02
2022-09-25T16:36:54.665Z,14.95
2022-09-25T16:39:28.414Z,14.87
2022-09-25T16:41:55.414Z,14.80
2022-09-25T16:44:25.238Z,14.76
2022-09-25T16:46:52.358Z,14.68
2022-09-25T16:49:21.978Z,14.59
2022-09-25T16:51:50.242Z,14.53
2022-09-25T16:54:18.753Z,14.49
2022-09-25T16:56:46.595Z,14.44
2022-09-25T16:59:24.465Z,14.38
2022-09-25T17:01:53.071Z,14.33
2022-09-25T17:04:26.556Z,14.27
2022-09-25T17:06:54.322Z,14.23
2022-09-25T17:09:20.768Z,14.17
2022-09-25T17:11:50.143Z,14.08
2022-09-25T17:14:23.114Z,14.02
2022-09-25T17:16:54.115Z,13.87
2022-09-25T17:19:21.375Z,13.81
2022-09-25T17:21:53.078Z,13.75
2022-09-25T17:24:22.641Z,13.66
2022-09-25T17:26:50.440Z,13.61
2022-09-25T17:29:17.024Z,13.55
2022-09-25T17:31:43.884Z,13.50
2022-09-25T17:34:16.979Z,13.46
2022-09-25T17:36:43.703Z,13.43
2022-09-25T17:39:10.572Z,13.38
2022-09-25T17:41:37.776Z,13.32
2022-09-25T17:44:05.246Z,13.26
2022-09-25T17:46:36.429Z,13.22
2022-09-25T17:49:04.276Z,13.16
2022-09-25T17:51:30.881Z,13.09
2022-09-25T17:53:59.154Z,13.06
2022-09-25T17:56:28.224Z,13.03
2022-09-25T17:58:57.332Z,12.99
2022-09-25T18:01:27.200Z,12.98
2022-09-25T18:03:59.842Z,12.91
2022-09-25T18:06:27.652Z,12.87
2022-09-25T18:08:55.972Z,12.84
2022-09-25T18:11:23.843Z,12.82
2022-09-25T18:13:54.670Z,12.77
2022-09-25T18:16:25.816Z,12.74
2022-09-25T18:19:11.152Z,12.74
2022-09-25T18:21:56.825Z,12.71
2022-09-25T18:24:23.385Z,12.65
2022-09-25T18:26:53.194Z,12.65
2022-09-25T18:29:20.924Z,12.64
2022-09-25T18:31:50.624Z,12.70
2022-09-25T18:34:18.329Z,12.68
2022-09-25T18:36:45.449Z,12.61
2022-09-25T18:39:16.094Z,12.62
2022-09-25T18:41:47.733Z,12.62
2022-09-25T18:44:15.241Z,12.63
2022-09-25T18:46:41.873Z,12.61
2022-09-25T18:49:08.803Z,12.60
2022-09-25T18:51:35.683Z,12.57
2022-09-25T18:54:04.629Z,12.57
2022-09-25T18:56:34.458Z,12.55
2022-09-25T18:59:05.906Z,12.51
2022-09-25T19:01:34.057Z,12.50
2022-09-25T19:04:00.709Z,12.51
2022-09-25T19:06:27.303Z,12.52
2022-09-25T19:08:57.878Z,12.55
2022-09-25T19:11:25.240Z,12.52
2022-09-25T19:13:51.751Z,12.53
2022-09-25T19:16:18.717Z,12.48
2022-09-25T19:18:45.351Z,12.46
2022-09-25T19:21:15.673Z,12.34
2022-09-25T19:23:42.809Z,12.33
2022-09-25T19:26:14.808Z,12.31
2022-09-25T19:28:41.792Z,12.29
2022-09-25T19:31:13.551Z,12.25
2022-09-25T19:33:40.355Z,12.19
2022-09-25T19:36:13.455Z,12.16
2022-09-25T19:38:43.528Z,12.12
2022-09-25T19:41:13.418Z,12.09
2022-09-25T19:43:39.984Z,12.04
2022-09-25T19:46:06.833Z,11.98
2022-09-25T19:48:33.572Z,11.94
2022-09-25T19:51:06.446Z,11.88
2022-09-25T19:53:32.961Z,11.84
2022-09-25T19:55:59.393Z,11.76
2022-09-25T19:58:25.914Z,11.72
2022-09-25T20:00:53.624Z,11.68
2022-09-25T20:03:20.247Z,11.58
2022-09-25T20:05:48.876Z,11.55
2022-09-25T20:08:15.731Z,11.55
2022-09-25T20:10:42.218Z,11.47
2022-09-25T20:13:10.036Z,11.39
2022-09-25T20:15:36.824Z,11.36
2022-09-25T20:18:10.694Z,11.33
2022-09-25T20:20:37.206Z,11.82
2022-09-25T20:23:04.754Z,12.02
2022-09-25T20:25:31.841Z,12.06
2022-09-25T20:27:59.891Z,11.94
2022-09-25T20:30:30.712Z,11.87
2022-09-25T20:32:59.570Z,11.79
2022-09-25T20:35:26.047Z,11.65
2022-09-25T20:37:53.402Z,11.53
2022-09-25T20:40:20.081Z,11.41
2022-09-25T20:42:46.918Z,11.37
2022-09-25T20:45:16.111Z,11.28
2022-09-25T20:47:46.518Z,11.25
2022-09-25T20:50:13.270Z,11.49
2022-09-25T20:52:39.961Z,11.41
2022-09-25T20:55:06.653Z,11.32
2022-09-25T20:57:33.496Z,11.29
2022-09-25T21:00:01.920Z,11.46
2022-09-25T21:02:29.508Z,11.53
2022-09-25T21:04:56.980Z,11.40
2022-09-25T21:07:25.608Z,11.53
2022-09-25T21:09:53.119Z,11.61
2022-09-25T21:12:19.910Z,11.45
2022-09-25T21:14:46.632Z,11.28
2022-09-25T21:17:13.198Z,11.37
2022-09-25T21:19:40.365Z,11.31
2022-09-25T21:22:07.024Z,11.23
2022-09-25T21:24:33.562Z,11.23
2022-09-25T21:26:59.972Z,11.13
2022-09-25T21:29:26.888Z,11.07
2022-09-25T21:31:54.698Z,11.04
2022-09-25T21:34:21.193Z,11.09
2022-09-25T21:36:48.805Z,11.01
2022-09-25T21:39:15.927Z,10.94
2022-09-25T21:41:42.527Z,10.89
2022-09-25T21:44:13.229Z,10.76
2022-09-25T21:46:40.089Z,10.78
2022-09-25T21:49:07.382Z,10.66
2022-09-25T21:51:39.168Z,10.64
2022-09-25T21:54:07.774Z,10.57
2022-09-25T21:56:34.567Z,10.58
2022-09-25T21:59:08.699Z,10.54
2022-09-25T22:01:38.471Z,10.51
2022-09-25T22:04:05.645Z,10.54
2022-09-25T22:06:44.462Z,10.41
2022-09-25T22:09:17.734Z,10.34
2022-09-25T22:11:44.264Z,10.25
2022-09-25T22:14:15.365Z,10.18
2022-09-25T22:16:43.201Z,10.23
2022-09-25T22:19:18.648Z,10.08
2022-09-25T22:21:47.134Z,10.06
2022-09-25T22:24:14.065Z,10.00
2022-09-25T22:26:42.716Z,9.96
2022-09-25T22:29:09.693Z,10.04
2022-09-25T22:31:38.357Z,10.00
2022-09-25T22:34:06.902Z,9.99
2022-09-25T22:36:35.898Z,9.96
2022-09-25T22:39:04.356Z,9.98
2022-09-25T22:41:30.782Z,9.92
2022-09-25T22:43:59.649Z,9.96
2022-09-25T22:46:27.383Z,9.99
2022-09-25T22:48:53.847Z,10.01
2022-09-25T22:51:22.206Z,10.04
2022-09-25T22:53:49.428Z,10.01
2022-09-25T22:56:18.347Z,10.10
2022-09-25T22:58:47.953Z,10.00
2022-09-25T23:01:36.674Z,9.97
2022-09-25T23:04:05.883Z,10.08
2022-09-25T23:06:33.649Z,10.00
2022-09-25T23:09:04.504Z,9.94
2022-09-25T23:11:31.585Z,9.82
2022-09-25T23:14:04.249Z,9.73
2022-09-25T23:16:32.055Z,9.79
2022-09-25T23:18:59.356Z,9.62
2022-09-25T23:21:27.073Z,9.62
2022-09-25T23:24:01.984Z,9.54
2022-09-25T23:26:29.495Z,9.49
2022-09-25T23:28:57.809Z,9.51
2022-09-25T23:31:24.465Z,9.51
2022-09-25T23:33:51.049Z,9.54
2022-09-25T23:36:22.307Z,9.51
2022-09-25T23:38:50.371Z,9.46
2022-09-25T23:41:21.823Z,9.44
2022-09-25T23:43:49.997Z,9.35
2022-09-25T23:46:18.150Z,9.39
2022-09-25T23:48:45.244Z,9.40
2022-09-25T23:51:12.839Z,9.44
2022-09-25T23:53:40.830Z,9.38
2022-09-25T23:56:19.601Z,9.41
2022-09-25T23:58:46.568Z,9.38
